Latest Weather Observations for Cape Otway

IDV60801

Issued at 11:02 am EST Saturday 1 August 2015 (issued every 30 minutes, with the page automatically refreshed every 10 minutes)

About weather observations | Map of weather stations | Latest weather observations for VIC | Other Formats
Station Details ID: 090015 Name: CAPE OTWAY LIGHTHOUSE Lat: -38.86 Lon: 143.51 Height: 82.0 m
Data from the previous 72 hours. | See also: Recent months at Cape Otway
Date/Time
EST
Temp
°C
App
Temp
°C
Dew
Point
Rel
Hum
%
Delta-T
°C
Wind Press
QNH
hPa
Press
MSL
hPa
Rain
since 9 am
mm
Dir
 
Spd
km/h
Gust
km/h
Spd
kts
Gust
kts
01/11:00am 10.0 2.2 1.6 56 3.5 W 32 44 17 24 1013.4 - 0.0
01/10:30am 9.9 1.4 1.0 54 3.7 WSW 35 52 19 28 1013.2 - 0.0
01/10:10am 10.0 2.2 2.8 61 3.1 WSW 33 52 18 28 1013.1 - 0.0
01/10:00am 9.8 1.8 1.5 56 3.5 WSW 33 50 18 27 1013.0 - 0.0
01/09:30am 9.7 0.9 1.4 56 3.5 WSW 37 56 20 30 1012.5 - 0.0
01/09:00am 9.6 -0.4 1.0 55 3.5 WSW 43 61 23 33 1011.9 1012.0 6.2
01/08:43am 9.5 -0.2 0.7 54 3.6 WSW 41 59 22 32 1011.4 - 6.2
01/08:30am 9.4 -0.1 1.8 59 3.2 WSW 41 57 22 31 1011.3 - 6.2
01/08:04am 9.4 0.3 3.8 68 2.5 WSW 41 61 22 33 1010.6 - 6.2
01/08:00am 9.4 0.3 4.2 70 2.3 WSW 41 56 22 30 1010.5 - 6.2
01/07:30am 9.0 1.7 5.4 78 1.6 WSW 33 56 18 30 1010.0 - 6.2
01/07:25am 8.4 2.1 5.9 84 1.1 W 28 56 15 30 1010.0 - 6.2
01/07:00am 8.4 0.8 6.0 85 1.1 W 35 50 19 27 1009.8 - 6.2
01/06:30am 8.3 -1.6 6.6 89 0.8 WSW 48 70 26 38 1009.2 - 6.2
01/06:00am 8.7 0.7 7.5 92 0.6 WSW 39 57 21 31 1008.3 1008.4 5.6
01/05:30am 8.4 -1.3 7.3 93 0.5 WSW 48 69 26 37 1007.8 - 5.0
01/05:17am 9.2 1.7 8.1 93 0.5 WSW 37 61 20 33 1007.4 - 4.8
01/05:00am 9.1 0.8 7.7 91 0.7 W 41 54 22 29 1007.1 - 3.2
01/04:59am 9.3 1.0 7.9 91 0.7 WSW 41 54 22 29 1007.0 - 3.0
01/04:56am 10.0 2.7 8.6 91 0.7 WNW 37 61 20 33 1006.6 - 2.4
01/04:30am 10.0 2.6 8.3 89 0.8 NW 37 63 20 34 1005.3 - 1.6
01/04:00am 10.4 1.7 7.8 84 1.3 NNW 43 80 23 43 1004.4 - 0.6
01/03:57am 10.3 2.4 7.9 85 1.2 NNW 39 80 21 43 1004.5 - 0.4
01/03:37am 9.8 2.8 6.7 81 1.5 NNW 33 52 18 28 1004.7 - 0.4
01/03:30am 10.2 2.7 6.5 78 1.7 NNW 35 52 19 28 1004.9 - 0.0
01/03:00am 11.3 3.6 5.2 66 2.8 N 35 54 19 29 1005.1 1005.2 0.0
01/02:30am 11.4 3.3 5.1 65 2.9 N 37 57 20 31 1005.5 - 0.0
01/02:00am 11.3 3.4 4.5 63 3.1 N 35 61 19 33 1005.8 - 0.0
01/01:30am 11.0 2.7 4.0 62 3.1 NNW 37 57 20 31 1006.5 - 0.0
01/01:00am 10.3 1.4 3.3 62 3.1 N 39 61 21 33 1007.0 - 0.0
01/12:30am 10.0 1.5 3.3 63 2.9 N 37 57 20 31 1007.6 - 0.0
01/12:00am 10.2 2.1 3.5 63 2.9 NNW 35 56 19 30 1008.5 1008.6 0.0
 
Date/Time
EST
Temp
°C
App
Temp
°C
Dew
Point
Rel
Hum
%
Delta-T
°C
Wind Press
QNH
hPa
Press
MSL
hPa
Rain
since 9 am
mm
Dir
 
Spd
km/h
Gust
km/h
Spd
kts
Gust
kts
31/11:35pm 10.1 2.4 3.4 63 2.9 NNW 33 56 18 30 1009.0 - 0.0
31/11:30pm 9.9 2.2 3.2 63 2.9 N 33 50 18 27 1008.8 - 0.0
31/11:00pm 9.7 1.9 2.8 62 3.0 N 33 57 18 31 1009.5 - 0.0
31/10:30pm 9.4 2.5 2.5 62 2.9 N 28 46 15 25 1010.2 - 0.0
31/10:06pm 9.7 2.8 2.6 61 3.0 N 28 48 15 26 1010.6 - 0.0
31/10:00pm 9.4 3.3 2.5 62 2.9 N 24 39 13 21 1010.7 - 0.0
31/09:30pm 9.3 3.2 2.6 63 2.9 N 24 50 13 27 1011.3 - 0.0
31/09:00pm 8.8 4.4 2.8 66 2.6 N 15 24 8 13 1012.0 1012.1 0.0
31/08:30pm 8.7 3.4 2.9 67 2.5 NNW 20 28 11 15 1013.2 - 0.0
31/08:00pm 8.6 4.3 3.2 69 2.3 NW 15 26 8 14 1013.6 - 0.0
31/07:30pm 8.9 4.3 3.5 69 2.3 NW 17 22 9 12 1014.1 - 0.0
31/07:00pm 8.6 3.8 2.8 67 2.5 NNW 17 28 9 15 1014.0 - 0.0
31/06:30pm 8.1 4.1 3.0 70 2.2 NNW 13 19 7 10 1013.7 - 0.0
31/06:00pm 7.7 4.1 2.8 71 2.1 NNW 11 17 6 9 1014.0 1014.1 0.0
31/05:30pm 8.1 4.5 2.8 69 2.2 NW 11 19 6 10 1014.3 - 0.0
31/05:00pm 9.1 5.1 2.9 65 2.7 NW 13 22 7 12 1014.4 - 0.0
31/04:30pm 9.7 5.7 3.0 63 2.9 NW 13 24 7 13 1014.6 - 0.0
31/04:00pm 10.3 5.6 2.9 60 3.2 NW 17 26 9 14 1014.9 - 0.0
31/03:30pm 10.3 5.1 2.4 58 3.4 NW 19 35 10 19 1014.9 - 0.0
31/03:00pm 9.8 4.4 2.2 59 3.2 NW 20 30 11 16 1015.4 1015.6 0.0
31/02:30pm 9.9 2.9 1.8 57 3.4 WNW 28 41 15 22 1015.8 - 0.0
31/02:00pm 10.1 4.2 2.0 57 3.4 NW 22 35 12 19 1016.4 - 0.0
31/01:30pm 9.6 3.8 2.2 60 3.1 WNW 22 35 12 19 1016.8 - 0.0
31/01:00pm 9.8 4.0 2.2 59 3.2 WNW 22 37 12 20 1017.4 - 0.0
31/12:30pm 10.2 3.9 1.6 55 3.6 NW 24 44 13 24 1017.9 - 0.0
31/12:00pm 10.8 5.0 2.4 56 3.6 NW 22 37 12 20 1018.6 1018.7 0.0
31/11:30am 10.3 4.7 3.6 63 2.9 NW 22 37 12 20 1019.0 - 0.0
31/11:00am 9.8 4.7 4.0 67 2.6 NW 20 33 11 18 1019.4 - 0.0
31/10:30am 9.4 4.4 4.8 73 2.1 NW 20 32 11 17 1019.5 - 0.0
31/10:00am 8.6 3.2 4.6 76 1.8 NW 22 37 12 20 1019.7 - 0.0
31/09:30am 8.6 3.5 4.0 73 2.0 NW 20 32 11 17 1019.6 - 0.0
31/09:00am 8.5 3.7 4.7 77 1.7 NW 19 28 10 15 1019.6 1019.7 4.8
31/08:30am 7.8 3.5 5.1 83 1.2 NW 17 26 9 14 1019.5 - 4.8
31/08:00am 6.3 1.4 4.1 86 0.9 NNW 19 22 10 12 1019.2 - 4.8
31/07:30am 6.5 1.5 4.5 87 0.9 NNW 20 28 11 15 1019.2 - 4.8
31/07:00am 6.2 1.3 3.9 85 1.0 NNW 19 24 10 13 1018.8 - 4.8
31/06:30am 7.4 2.2 3.8 78 1.5 NNW 20 37 11 20 1018.5 - 4.8
31/06:00am 8.4 2.9 4.0 74 1.9 WNW 22 37 12 20 1018.4 1018.5 4.8
31/05:30am 9.0 3.5 4.2 72 2.1 WSW 22 32 12 17 1018.4 - 4.8
31/05:00am 9.3 2.5 4.9 74 2.0 WSW 30 50 16 27 1018.3 - 4.8
31/04:57am 9.7 3.2 4.9 72 2.2 W 28 50 15 27 1018.2 - 4.8
31/04:30am 9.3 2.3 2.2 61 3.0 W 28 39 15 21 1018.1 - 4.8
31/04:00am 9.5 3.4 2.6 62 2.9 W 24 35 13 19 1018.1 - 4.8
31/03:30am 9.4 3.3 2.7 63 2.9 W 24 35 13 19 1018.0 - 4.8
31/03:00am 9.4 3.8 3.4 66 2.6 W 22 35 12 19 1018.1 1018.2 4.8
31/02:30am 9.4 2.9 2.9 64 2.8 WSW 26 35 14 19 1018.3 - 4.8
31/02:00am 9.2 3.2 3.6 68 2.4 WSW 24 37 13 20 1018.2 - 4.8
31/01:30am 9.2 3.1 4.6 73 2.1 WSW 26 35 14 19 1018.2 - 4.8
31/01:00am 9.1 1.5 4.1 71 2.2 WSW 33 52 18 28 1018.0 - 4.8
31/12:53am 9.4 1.9 4.6 72 2.1 WSW 33 52 18 28 1017.9 - 4.8
31/12:30am 9.0 4.0 4.6 74 2.0 WSW 20 32 11 17 1017.8 - 4.8
31/12:00am 9.7 2.8 4.5 70 2.3 WSW 30 43 16 23 1017.6 1017.7 4.8
 
Date/Time
EST
Temp
°C
App
Temp
°C
Dew
Point
Rel
Hum
%
Delta-T
°C
Wind Press
QNH
hPa
Press
MSL
hPa
Rain
since 9 am
mm
Dir
 
Spd
km/h
Gust
km/h
Spd
kts
Gust
kts
30/11:30pm 9.4 2.1 4.4 71 2.2 SW 32 44 17 24 1017.4 - 4.8
30/11:00pm 9.3 1.8 4.7 73 2.1 WSW 33 50 18 27 1017.1 - 4.8
30/10:39pm 9.4 3.0 5.0 74 2.0 WSW 28 48 15 26 1016.7 - 4.8
30/10:30pm 9.2 2.4 5.2 76 1.8 SW 30 44 16 24 1016.8 - 4.8
30/10:17pm 9.6 1.0 4.6 71 2.2 SW 39 57 21 31 1016.7 - 4.8
30/10:00pm 10.0 1.8 4.6 69 2.4 WSW 37 52 20 28 1016.5 - 4.8
30/09:30pm 10.0 1.6 5.4 73 2.1 SW 39 52 21 28 1016.0 - 4.8
30/09:00pm 10.5 1.4 5.7 72 2.2 WSW 43 61 23 33 1015.1 1015.3 4.8
30/08:30pm 10.4 1.6 5.4 71 2.3 WSW 41 61 22 33 1014.3 - 4.8
30/08:20pm 10.2 2.3 6.0 75 1.9 WSW 37 56 20 30 1014.2 - 4.8
30/08:00pm 10.0 1.6 7.4 84 1.2 W 41 56 22 30 1013.8 - 4.8
30/07:30pm 9.2 1.5 7.3 88 0.9 W 37 56 20 30 1013.4 - 4.8
30/07:22pm 9.1 1.4 7.2 88 0.9 W 37 56 20 30 1013.3 - 4.8
30/07:00pm 9.0 1.3 7.3 89 0.8 W 37 52 20 28 1012.9 - 4.6
30/06:30pm 9.2 1.2 7.5 89 0.8 W 39 59 21 32 1012.1 - 4.0
30/06:16pm 10.5 2.7 8.3 86 1.1 W 39 61 21 33 1011.9 - 1.0
30/06:14pm 10.3 1.7 8.1 86 1.1 W 43 61 23 33 1011.5 - 1.0
30/06:00pm 9.5 2.8 7.3 86 1.0 NW 32 50 17 27 1010.1 1010.2 1.0
30/05:30pm 9.9 1.2 6.2 78 1.7 NNW 41 69 22 37 1008.7 - 0.4
30/05:00pm 9.9 0.3 6.4 79 1.6 NNW 46 69 25 37 1008.1 - 0.4
30/04:30pm 9.7 0.4 6.1 78 1.7 NNW 44 76 24 41 1008.4 - 0.4
30/04:27pm 9.6 0.9 6.1 79 1.6 NNW 41 70 22 38 1008.4 - 0.4
30/04:00pm 8.8 1.6 5.9 82 1.3 NNW 33 52 18 28 1008.8 - 0.4
30/03:30pm 9.7 1.5 4.7 71 2.2 NNW 37 59 20 32 1008.8 - 0.0
30/03:00pm 11.0 2.2 3.8 61 3.2 NNW 39 67 21 36 1008.9 1009.0 0.0
30/02:30pm 11.0 2.5 3.3 59 3.4 NNW 37 61 20 33 1008.7 - 0.0
30/02:02pm 11.1 3.4 3.4 59 3.4 NNW 33 52 18 28 1009.8 - 0.0
30/02:00pm 10.8 2.8 3.6 61 3.2 NNW 35 52 19 28 1009.7 - 0.0
30/01:30pm 11.3 2.7 2.6 55 3.8 NNW 37 59 20 32 1010.3 - 0.0
30/01:00pm 11.2 1.8 2.5 55 3.8 N 41 63 22 34 1009.9 - 0.0
30/12:30pm 11.5 2.9 2.5 54 3.9 N 37 57 20 31 1010.9 - 0.0
30/12:00pm 11.4 2.4 2.2 53 4.0 N 39 61 21 33 1011.3 1011.4 0.0
30/11:30am 11.4 2.7 1.9 52 4.1 N 37 65 20 35 1012.5 - 0.0
30/11:00am 10.0 2.2 2.6 60 3.2 N 33 56 18 30 1013.5 - 0.0
30/10:30am 9.8 2.6 3.1 63 2.9 N 30 50 16 27 1014.2 - 0.0
30/10:00am 8.3 0.3 3.6 72 2.0 N 35 54 19 29 1015.0 - 0.0
30/09:30am 9.4 0.7 2.3 61 3.0 N 37 57 20 31 1015.5 - 0.0
30/09:12am 9.5 1.6 2.1 60 3.1 NNW 33 59 18 32 1016.2 - 0.0
30/09:00am 9.5 2.1 2.1 60 3.1 NNW 30 46 16 25 1016.4 1016.5 0.2
30/08:43am 9.5 2.1 1.9 59 3.2 NNW 30 48 16 26 1016.6 - 0.2
30/08:30am 9.3 2.0 2.2 61 3.0 N 30 46 16 25 1016.5 - 0.2
30/08:20am 9.3 2.3 1.9 60 3.1 N 28 46 15 25 1016.4 - 0.2
30/08:00am 9.0 2.4 2.1 62 2.9 N 26 43 14 23 1016.8 - 0.2
30/07:44am 9.0 2.0 2.1 62 2.9 NNW 28 46 15 25 1016.6 - 0.2
30/07:30am 8.9 1.5 2.0 62 2.9 NNW 30 43 16 23 1016.4 - 0.2
30/07:13am 8.9 1.0 2.0 62 2.9 N 33 54 18 29 1016.5 - 0.2
30/07:00am 8.9 1.1 2.0 62 2.9 N 32 46 17 25 1016.8 - 0.2
30/06:33am 9.0 1.1 2.1 62 2.9 N 33 52 18 28 1017.0 - 0.2
30/06:30am 9.2 0.9 2.1 61 3.0 N 35 52 19 28 1017.0 - 0.2
30/06:04am 9.3 1.4 2.2 61 3.0 N 33 52 18 28 1017.4 - 0.2
30/06:00am 9.1 1.2 2.2 62 2.9 N 33 48 18 26 1017.6 1017.7 0.2
30/05:40am 8.9 1.2 2.3 63 2.8 N 32 50 17 27 1017.8 - 0.2
30/05:30am 8.9 1.0 2.3 63 2.8 N 33 50 18 27 1017.7 - 0.2
30/05:00am 8.8 1.1 2.2 63 2.8 N 32 50 17 27 1018.2 - 0.2
30/04:30am 8.9 0.6 2.3 63 2.8 N 35 56 19 30 1018.7 - 0.2
30/04:00am 8.8 1.2 2.6 65 2.6 N 32 61 17 33 1019.0 - 0.2
30/03:30am 8.7 0.8 2.5 65 2.6 NNW 33 52 18 28 1019.7 - 0.2
30/03:02am 8.9 1.6 2.7 65 2.6 NNW 30 50 16 27 1020.2 - 0.2
30/03:00am 8.8 1.5 2.6 65 2.6 N 30 44 16 24 1020.2 1020.3 0.2
30/02:30am 8.7 1.1 2.7 66 2.5 N 32 50 17 27 1020.6 - 0.2
30/02:20am 8.8 1.2 2.8 66 2.6 N 32 57 17 31 1020.7 - 0.2
30/02:00am 8.6 1.7 2.8 67 2.5 N 28 43 15 23 1020.9 - 0.2
30/01:30am 8.8 3.1 3.0 67 2.5 NNW 22 35 12 19 1021.7 - 0.2
30/01:00am 8.7 3.0 3.1 68 2.4 N 22 37 12 20 1022.1 - 0.2
30/12:30am 8.8 2.8 3.2 68 2.4 N 24 33 13 18 1022.5 - 0.2
30/12:00am 8.9 2.9 3.1 67 2.5 N 24 35 13 19 1023.0 1023.1 0.2
 
Date/Time
EST
Temp
°C
App
Temp
°C
Dew
Point
Rel
Hum
%
Delta-T
°C
Wind Press
QNH
hPa
Press
MSL
hPa
Rain
since 9 am
mm
Dir
 
Spd
km/h
Gust
km/h
Spd
kts
Gust
kts
29/11:30pm 9.2 3.2 3.2 66 2.6 N 24 37 13 20 1023.4 - 0.2
29/11:00pm 9.3 2.9 3.3 66 2.6 N 26 37 14 20 1023.8 - 0.2
29/10:30pm 9.2 4.0 3.4 67 2.5 N 20 33 11 18 1024.2 - 0.2
29/10:00pm 9.0 4.3 3.4 68 2.4 NNW 17 24 9 13 1024.8 - 0.2
29/09:30pm 9.4 4.8 3.8 68 2.5 N 17 28 9 15 1024.9 - 0.2
29/09:00pm 9.2 4.6 3.6 68 2.4 N 17 28 9 15 1025.2 1025.4 0.2
29/08:30pm 9.6 5.0 3.8 67 2.5 N 17 28 9 15 1025.4 - 0.2
29/08:00pm 9.5 5.3 3.9 68 2.5 N 15 24 8 13 1025.5 - 0.2
29/07:30pm 9.2 5.5 4.2 71 2.2 N 13 22 7 12 1025.8 - 0.2
29/07:00pm 9.4 5.7 4.4 71 2.2 N 13 22 7 12 1025.8 - 0.2
29/06:30pm 9.6 5.5 4.6 71 2.2 N 15 22 8 12 1025.7 - 0.2
29/06:00pm 9.8 5.4 4.8 71 2.2 N 17 24 9 13 1025.7 1025.9 0.2
29/05:30pm 10.0 5.6 4.8 70 2.3 N 17 24 9 13 1025.9 - 0.2
29/05:00pm 10.3 6.3 4.9 69 2.4 N 15 22 8 12 1026.3 - 0.2
29/04:30pm 10.5 6.9 5.1 69 2.5 N 13 19 7 10 1026.3 - 0.2
29/04:00pm 10.7 7.1 4.8 67 2.7 NNW 13 22 7 12 1026.7 - 0.2
29/03:30pm 10.9 6.5 4.8 66 2.8 NW 17 26 9 14 1026.8 - 0.2
29/03:00pm 11.3 7.4 5.4 67 2.7 NW 15 22 8 12 1026.9 1027.1 0.2
29/02:30pm 11.5 6.9 5.4 66 2.8 NNW 19 30 10 16 1027.2 - 0.2
29/02:00pm 11.9 7.8 6.4 69 2.6 NNW 17 28 9 15 1027.8 - 0.2
29/01:30pm 11.4 6.9 6.1 70 2.5 NNW 19 28 10 15 1028.3 - 0.2
29/01:00pm 11.4 6.8 5.5 67 2.7 NNW 19 30 10 16 1028.9 - 0.2
29/12:30pm 11.1 6.3 5.4 68 2.6 NNW 20 30 11 16 1029.6 - 0.2
29/12:00pm 11.1 6.3 5.8 70 2.4 NNW 20 28 11 15 1030.1 1030.2 0.2
29/11:30am 11.1 6.6 6.0 71 2.4 N 19 30 10 16 1030.6 - 0.2

Other Formats:

Comma delimited format used in spreadsheet applications
http://www.bom.gov.au/fwo/IDV60801/IDV60801.94842.axf

JavaScript Object Notation format (JSON) in row-major order
http://www.bom.gov.au/fwo/IDV60801/IDV60801.94842.json